Time;durP1;ratioP1;P1;durP2;ratioP2;P2;SDS_P1;SDS_P2;PMS_P1;PMS_P2;Temp;Humidity;BMP_temperature;BMP_pressure;BME280_temperature;BME280_humidity;BME280_pressure;Samples;Min_cycle;Max_cycle;Signal;HPM_P1;HPM_P2
2023/10/08 00:01:55;;;;;;;13.80;7.05;;;17.80;92.00;;;;;;7379374;19;19999;-75
2023/10/08 00:04:25;;;;;;;11.35;6.30;;;17.80;91.90;;;;;;7381925;19;20028;-74
2023/10/08 00:06:55;;;;;;;12.38;5.85;;;17.70;91.90;;;;;;7379435;19;20025;-74
2023/10/08 00:09:26;;;;;;;11.93;6.07;;;17.80;92.00;;;;;;7401146;19;20019;-74
2023/10/08 00:11:55;;;;;;;10.90;5.63;;;17.80;92.10;;;;;;7378342;19;20002;-75
2023/10/08 00:14:24;;;;;;;9.88;5.22;;;17.70;92.00;;;;;;7379195;19;20003;-75
2023/10/08 00:16:53;;;;;;;16.35;5.50;;;17.80;92.00;;;;;;7384885;19;20319;-76
2023/10/08 00:22:35;;;;;;;14.87;5.67;;;17.70;91.90;;;;;;7385108;19;20056;-75
2023/10/08 00:25:11;;;;;;;11.82;6.03;;;17.70;92.00;;;;;;7389219;19;20006;-75
2023/10/08 00:27:41;;;;;;;17.40;6.30;;;17.60;91.90;;;;;;7387074;19;20252;-75
2023/10/08 00:30:17;;;;;;;12.82;5.38;;;17.60;91.90;;;;;;7407674;19;20003;-75
2023/10/08 00:32:46;;;;;;;13.82;5.95;;;17.60;91.90;;;;;;7385030;19;20013;-75
2023/10/08 00:35:20;;;;;;;18.10;6.13;;;17.60;91.90;;;;;;7384777;19;20066;-76
2023/10/08 00:37:51;;;;;;;11.65;6.00;;;17.60;91.80;;;;;;7386702;19;20023;-75
2023/10/08 00:40:23;;;;;;;12.80;6.53;;;17.60;91.90;;;;;;7385606;19;20002;-76
2023/10/08 00:42:56;;;;;;;18.30;7.32;;;17.50;92.00;;;;;;7385623;19;20002;-74
2023/10/08 00:45:30;;;;;;;12.98;6.13;;;17.50;92.20;;;;;;7411736;19;20027;-75
2023/10/08 00:48:00;;;;;;;12.68;5.82;;;17.50;92.30;;;;;;7385087;19;20007;-74
2023/10/08 00:50:42;;;;;;;28.75;10.80;;;17.50;92.20;;;;;;7384709;19;20288;-75
2023/10/08 00:53:17;;;;;;;27.70;9.82;;;17.50;92.20;;;;;;7385855;19;20083;-74
2023/10/08 00:55:53;;;;;;;17.35;6.88;;;17.50;92.20;;;;;;7385264;19;20013;-75
2023/10/08 00:58:27;;;;;;;12.55;5.80;;;17.50;92.00;;;;;;7384261;19;20023;-75
2023/10/08 01:01:00;;;;;;;18.30;5.85;;;17.50;91.90;;;;;;7385294;19;20024;-74
2023/10/08 01:03:29;;;;;;;9.82;5.82;;;17.50;91.80;;;;;;7407443;19;20013;-75
2023/10/08 01:06:00;;;;;;;9.63;5.45;;;17.50;91.70;;;;;;7384465;19;20003;-74
2023/10/08 01:08:35;;;;;;;13.05;5.55;;;17.50;91.70;;;;;;7384580;19;20003;-75
2023/10/08 01:11:39;;;;;;;13.15;5.25;;;17.50;91.70;;;;;;7387959;19;19999;-75
2023/10/08 01:14:09;;;;;;;9.75;5.68;;;17.50;91.70;;;;;;7384983;19;20417;-75
2023/10/08 01:16:41;;;;;;;12.25;5.78;;;17.50;91.60;;;;;;7384465;19;20384;-74
2023/10/08 01:19:13;;;;;;;11.57;5.65;;;17.50;91.70;;;;;;7384928;19;20006;-75
2023/10/08 01:21:42;;;;;;;10.02;5.43;;;17.50;91.70;;;;;;7384506;19;20373;-74
2023/10/08 01:24:17;;;;;;;12.02;5.18;;;17.40;91.60;;;;;;7408580;19;20007;-75
2023/10/08 01:26:46;;;;;;;12.73;5.72;;;17.40;91.60;;;;;;7384091;19;20002;-76
2023/10/08 01:29:21;;;;;;;10.65;5.43;;;17.40;91.50;;;;;;7387628;19;20002;-77
2023/10/08 01:31:53;;;;;;;9.55;5.32;;;17.40;91.50;;;;;;7385033;19;20010;-75
2023/10/08 01:34:27;;;;;;;10.20;5.43;;;17.40;91.60;;;;;;7387402;19;20405;-76
2023/10/08 01:36:55;;;;;;;16.15;4.88;;;17.40;91.60;;;;;;7385411;19;20020;-76
2023/10/08 01:39:26;;;;;;;12.27;5.10;;;17.40;91.60;;;;;;7406624;19;20371;-76
2023/10/08 01:41:55;;;;;;;17.08;5.45;;;17.40;91.60;;;;;;7383520;19;20031;-74
2023/10/08 01:44:24;;;;;;;11.15;5.50;;;17.30;91.50;;;;;;7385158;19;20010;-76
2023/10/08 01:46:53;;;;;;;10.50;5.68;;;17.30;91.50;;;;;;7384082;19;20010;-75
2023/10/08 01:49:24;;;;;;;14.60;5.88;;;17.30;91.50;;;;;;7383579;19;20003;-75
2023/10/08 01:51:54;;;;;;;;;;;17.30;91.60;;;;;;7384555;19;20074;-75
2023/10/08 01:54:25;;;;;;;12.10;5.68;;;17.30;91.60;;;;;;7403575;19;19915;-73
2023/10/08 01:56:57;;;;;;;14.20;5.20;;;17.30;91.60;;;;;;7381341;19;20002;-75
2023/10/08 01:59:25;;;;;;;13.63;5.50;;;17.30;91.60;;;;;;7383006;19;20277;-76
2023/10/08 02:01:57;;;;;;;10.98;5.80;;;17.30;91.60;;;;;;7385175;19;20007;-74
2023/10/08 02:04:25;;;;;;;10.13;4.85;;;17.30;91.50;;;;;;7384213;19;20019;-75
2023/10/08 02:06:54;;;;;;;9.75;4.90;;;17.30;91.50;;;;;;7383450;19;20020;-74
2023/10/08 02:09:26;;;;;;;13.98;5.13;;;17.20;91.40;;;;;;7404661;19;20098;-75
2023/10/08 02:11:58;;;;;;;13.20;5.45;;;17.20;91.50;;;;;;7385488;19;20024;-74
2023/10/08 02:14:30;;;;;;;10.25;4.88;;;17.10;91.50;;;;;;7382525;19;20016;-74
2023/10/08 02:17:03;;;;;;;18.80;4.97;;;17.20;91.50;;;;;;7383019;19;20044;-75
2023/10/08 02:19:32;;;;;;;8.25;4.95;;;17.10;91.50;;;;;;7384413;19;20492;-75
2023/10/08 02:22:09;;;;;;;17.63;4.70;;;17.10;91.40;;;;;;7382732;19;20015;-74
2023/10/08 02:24:38;;;;;;;13.63;4.88;;;17.10;91.30;;;;;;7381017;19;20007;-74
2023/10/08 02:27:10;;;;;;;9.13;4.43;;;17.10;91.30;;;;;;7403741;19;20362;-74
2023/10/08 02:29:39;;;;;;;11.70;5.45;;;17.10;91.40;;;;;;7386364;19;20047;-75
2023/10/08 02:32:08;;;;;;;9.18;5.22;;;17.10;91.40;;;;;;7382317;19;20002;-75
2023/10/08 02:34:37;;;;;;;11.68;4.78;;;17.10;91.50;;;;;;7382623;19;20048;-76
2023/10/08 02:37:06;;;;;;;9.77;4.45;;;17.10;91.40;;;;;;7382314;19;20054;-74
2023/10/08 02:39:34;;;;;;;14.85;4.85;;;17.10;91.40;;;;;;7382183;19;20027;-74
2023/10/08 02:42:10;;;;;;;11.50;4.57;;;17.10;91.20;;;;;;7403184;19;20362;-74
2023/10/08 02:44:42;;;;;;;13.10;5.07;;;17.10;91.20;;;;;;7383965;19;20003;-74
2023/10/08 02:47:11;;;;;;;12.25;4.65;;;17.10;91.10;;;;;;7381661;19;20011;-74
2023/10/08 02:49:42;;;;;;;12.48;5.75;;;17.10;91.20;;;;;;7382397;19;20015;-75
2023/10/08 02:52:12;;;;;;;8.68;5.07;;;17.10;91.20;;;;;;7381839;19;20369;-74
2023/10/08 02:54:41;;;;;;;8.95;5.13;;;17.00;91.30;;;;;;7380119;19;20013;-74
2023/10/08 02:57:14;;;;;;;6.95;4.20;;;17.00;91.20;;;;;;7402222;19;20015;-75
2023/10/08 02:59:46;;;;;;;14.65;5.03;;;16.90;91.40;;;;;;7381149;19;20230;-73
2023/10/08 03:02:18;;;;;;;8.27;4.68;;;16.90;91.50;;;;;;7380710;19;20002;-75
2023/10/08 03:04:48;;;;;;;14.40;4.68;;;16.90;91.60;;;;;;7382044;19;19999;-76
2023/10/08 03:07:31;;;;;;;11.60;4.50;;;16.80;91.50;;;;;;7381824;19;20011;-75
2023/10/08 03:10:06;;;;;;;8.25;4.60;;;16.80;91.70;;;;;;7382568;19;20011;-75
2023/10/08 03:12:35;;;;;;;14.93;4.70;;;16.80;91.70;;;;;;7382899;19;20009;-75
2023/10/08 03:15:27;;;;;;;10.70;4.85;;;16.80;92.10;;;;;;7402768;19;20066;-75
2023/10/08 03:17:57;;;;;;;9.13;4.22;;;16.80;91.80;;;;;;7379478;19;20007;-75
2023/10/08 03:20:38;;;;;;;9.95;4.68;;;16.80;91.70;;;;;;7380458;19;20018;-75
2023/10/08 03:23:13;;;;;;;9.75;4.97;;;16.80;91.50;;;;;;7380793;19;20422;-74
2023/10/08 03:25:45;;;;;;;10.57;4.63;;;16.80;91.60;;;;;;7381084;19;20006;-75
2023/10/08 03:28:16;;;;;;;8.43;4.18;;;16.80;91.60;;;;;;7383683;19;20011;-75
2023/10/08 03:31:02;;;;;;;9.52;5.10;;;16.80;91.70;;;;;;7380872;19;20007;-75
2023/10/08 03:33:34;;;;;;;9.82;4.57;;;16.70;91.60;;;;;;7395917;19;20018;-74
2023/10/08 03:36:09;;;;;;;8.68;4.70;;;16.70;91.60;;;;;;7402030;19;20015;-74
2023/10/08 03:38:50;;;;;;;10.98;4.70;;;16.70;91.80;;;;;;7380252;19;20003;-74
2023/10/08 03:41:21;;;;;;;9.63;4.43;;;16.70;91.70;;;;;;7380947;19;20041;-76
2023/10/08 03:44:01;;;;;;;10.05;4.45;;;16.70;91.50;;;;;;7382949;19;20011;-75
2023/10/08 03:46:39;;;;;;;9.65;4.28;;;16.70;91.50;;;;;;7379661;19;20010;-75
2023/10/08 03:49:14;;;;;;;9.63;4.40;;;16.70;91.50;;;;;;7378791;19;20026;-75
2023/10/08 03:51:43;;;;;;;10.25;4.57;;;16.70;91.50;;;;;;7381128;19;20007;-74
2023/10/08 03:54:18;;;;;;;11.95;4.57;;;16.70;91.50;;;;;;7399652;19;20004;-75
2023/10/08 03:56:48;;;;;;;10.18;4.68;;;16.70;91.50;;;;;;7379117;19;20015;-76
2023/10/08 03:59:20;;;;;;;8.77;4.35;;;16.70;91.50;;;;;;7379830;19;20070;-75
2023/10/08 04:01:54;;;;;;;11.18;4.78;;;16.70;91.40;;;;;;7380732;19;20006;-75
2023/10/08 04:04:30;;;;;;;10.43;5.22;;;16.70;91.50;;;;;;7380483;19;20023;-76
2023/10/08 04:07:24;;;;;;;17.33;4.93;;;16.70;91.60;;;;;;7380380;19;20045;-74
2023/10/08 04:09:48;;;;;;;8.75;4.63;;;16.60;91.60;;;;;;7380167;19;20357;-75
2023/10/08 04:12:18;;;;;;;10.15;4.57;;;16.60;91.60;;;;;;7400762;19;20070;-74
2023/10/08 04:14:48;;;;;;;8.68;4.93;;;16.60;91.60;;;;;;7382090;19;20302;-75
2023/10/08 04:17:22;;;;;;;12.30;5.13;;;16.50;91.70;;;;;;7378299;19;20013;-74
2023/10/08 04:19:51;;;;;;;8.60;4.55;;;16.50;91.80;;;;;;7379104;19;20026;-74
2023/10/08 04:22:19;;;;;;;8.52;4.50;;;16.50;91.80;;;;;;7379715;19;20007;-74
2023/10/08 04:24:51;;;;;;;8.85;4.63;;;16.50;91.80;;;;;;7382758;19;20018;-74
2023/10/08 04:27:22;;;;;;;9.02;4.13;;;16.40;91.70;;;;;;7400812;19;20034;-75
2023/10/08 04:29:51;;;;;;;8.57;4.80;;;16.40;91.70;;;;;;7378667;19;20006;-74
2023/10/08 04:32:24;;;;;;;12.90;5.32;;;16.40;91.70;;;;;;7378742;19;20003;-75
2023/10/08 04:34:53;;;;;;;14.48;5.07;;;16.50;91.80;;;;;;7380400;19;19999;-75
2023/10/08 04:37:30;;;;;;;9.35;4.88;;;16.50;91.80;;;;;;7378544;19;20047;-74
2023/10/08 04:40:01;;;;;;;11.93;4.10;;;16.50;91.70;;;;;;7378915;19;20011;-75
2023/10/08 04:42:30;;;;;;;8.07;4.40;;;16.50;91.60;;;;;;7402340;19;20099;-74
2023/10/08 04:44:58;;;;;;;10.65;4.78;;;16.50;91.50;;;;;;7377422;19;20010;-74
2023/10/08 04:47:35;;;;;;;8.48;5.03;;;16.50;91.50;;;;;;7378124;19;20011;-74
2023/10/08 04:50:06;;;;;;;8.50;4.75;;;16.50;91.50;;;;;;7378285;19;20003;-75
2023/10/08 04:52:45;;;;;;;10.45;4.47;;;16.50;91.50;;;;;;7378809;19;20007;-75
2023/10/08 04:55:20;;;;;;;12.95;4.45;;;16.50;91.40;;;;;;7378136;19;20067;-74
2023/10/08 04:57:49;;;;;;;11.55;4.70;;;16.50;91.40;;;;;;7377501;19;20090;-75
2023/10/08 05:00:40;;;;;;;14.43;5.13;;;16.50;91.80;;;;;;7400370;19;20011;-74
2023/10/08 05:03:13;;;;;;;10.43;5.10;;;16.50;91.40;;;;;;7384929;19;20010;-74
2023/10/08 05:05:55;;;;;;;18.23;5.20;;;16.50;91.80;;;;;;7384955;19;20062;-73
2023/10/08 05:08:32;;;;;;;13.57;5.05;;;16.50;91.60;;;;;;7386139;19;19999;-75
2023/10/08 05:11:15;;;;;;;9.05;4.65;;;16.50;91.50;;;;;;7385061;19;20272;-73
2023/10/08 05:13:55;;;;;;;12.93;5.22;;;16.40;91.40;;;;;;7385500;19;20011;-74
2023/10/08 05:16:36;;;;;;;12.60;5.30;;;16.40;91.50;;;;;;7384758;19;20016;-75
2023/10/08 05:19:26;;;;;;;11.88;4.93;;;16.30;91.70;;;;;;7383178;19;20011;-75
2023/10/08 05:22:01;;;;;;;10.93;5.18;;;16.20;91.70;;;;;;7383162;19;20030;-75
2023/10/08 05:24:38;;;;;;;14.00;5.45;;;16.20;91.80;;;;;;7409989;19;20031;-75
2023/10/08 05:27:37;;;;;;;14.48;5.18;;;16.20;91.90;;;;;;7388032;19;20002;-74
2023/10/08 05:33:06;;;;;;;15.70;4.45;;;16.20;91.90;;;;;;7383277;19;20042;-74
2023/10/08 05:41:27;;;;;;;12.15;5.25;;;16.20;91.80;;;;;;7382956;19;20026;-74
2023/10/08 05:47:06;;;;;;;11.15;5.13;;;16.20;91.60;;;;;;7384314;19;20361;-74
2023/10/08 05:49:42;;;;;;;11.80;5.20;;;16.20;91.60;;;;;;7383920;19;20050;-75
2023/10/08 05:52:41;;;;;;;15.25;5.03;;;16.20;91.50;;;;;;7383754;19;20063;-75
2023/10/08 05:55:25;;;;;;;16.08;5.13;;;16.20;91.60;;;;;;7383765;19;20013;-76
2023/10/08 05:58:05;;;;;;;15.63;4.63;;;16.20;91.60;;;;;;7381832;19;20054;-75
2023/10/08 06:03:31;;;;;;;11.88;4.30;;;16.20;91.60;;;;;;7405257;19;20040;-74
2023/10/08 06:08:52;;;;;;;10.73;4.35;;;16.20;91.50;;;;;;7384047;19;20377;-74
2023/10/08 06:11:36;;;;;;;10.45;4.72;;;16.20;91.40;;;;;;7383027;19;20003;-75
2023/10/08 06:14:13;;;;;;;9.90;4.72;;;16.20;91.30;;;;;;7383772;19;20011;-74
2023/10/08 06:16:43;;;;;;;8.48;4.55;;;16.20;91.30;;;;;;7383553;19;20005;-74
2023/10/08 06:19:13;;;;;;;14.98;5.43;;;16.20;91.30;;;;;;7382796;19;20003;-75
2023/10/08 06:21:41;;;;;;;11.15;4.75;;;16.20;91.20;;;;;;7384355;19;20014;-74
2023/10/08 06:24:16;;;;;;;12.63;4.45;;;16.20;91.10;;;;;;7408302;19;20068;-75
2023/10/08 06:26:48;;;;;;;14.43;4.78;;;16.20;91.50;;;;;;7383078;19;20066;-76
2023/10/08 06:29:29;;;;;;;21.20;4.90;;;16.20;91.20;;;;;;7383229;19;20006;-75
2023/10/08 06:32:01;;;;;;;11.35;4.90;;;16.20;91.20;;;;;;7384165;19;19998;-75
2023/10/08 06:34:31;;;;;;;11.00;5.15;;;16.20;91.10;;;;;;7382996;19;20032;-75
2023/10/08 06:37:06;;;;;;;11.18;5.20;;;16.20;91.10;;;;;;7384774;19;20010;-75
2023/10/08 06:39:47;;;;;;;9.45;5.00;;;16.20;91.20;;;;;;7384820;19;20023;-75
2023/10/08 06:42:16;;;;;;;18.43;5.00;;;16.20;91.20;;;;;;7405329;19;20288;-75
2023/10/08 06:44:48;;;;;;;14.15;5.80;;;16.30;91.30;;;;;;7384588;19;20384;-74
2023/10/08 06:47:18;;;;;;;9.00;4.35;;;16.30;91.30;;;;;;7382592;19;20007;-74
2023/10/08 06:49:49;;;;;;;11.90;5.43;;;16.30;91.40;;;;;;7383302;19;20074;-75
2023/10/08 06:52:19;;;;;;;16.88;5.20;;;16.30;91.40;;;;;;7384648;19;20007;-75
2023/10/08 06:54:53;;;;;;;11.50;5.03;;;16.40;91.40;;;;;;7383038;19;20029;-76
2023/10/08 06:57:26;;;;;;;12.30;5.32;;;16.40;91.50;;;;;;7404506;19;20003;-75
2023/10/08 06:59:55;;;;;;;8.68;4.75;;;16.40;91.50;;;;;;7381334;19;20002;-73
2023/10/08 07:02:26;;;;;;;11.75;5.55;;;16.50;91.60;;;;;;7381267;19;20006;-74
2023/10/08 07:04:56;;;;;;;12.48;5.00;;;16.50;91.50;;;;;;7382729;19;20007;-74
2023/10/08 07:07:28;;;;;;;10.05;5.00;;;16.50;91.50;;;;;;7382656;19;20006;-74
2023/10/08 07:10:00;;;;;;;13.13;5.40;;;16.50;91.60;;;;;;7382196;19;20364;-74
2023/10/08 07:12:34;;;;;;;12.50;5.20;;;16.60;91.70;;;;;;7405793;19;20007;-74
2023/10/08 07:15:11;;;;;;;11.88;5.18;;;16.60;91.70;;;;;;7381545;19;20015;-74
2023/10/08 07:17:40;;;;;;;14.13;5.72;;;16.60;91.70;;;;;;7380443;19;20007;-75
2023/10/08 07:20:13;;;;;;;11.55;4.90;;;16.60;91.80;;;;;;7381731;19;20022;-74
2023/10/08 07:22:43;;;;;;;17.30;5.72;;;16.70;91.90;;;;;;7381614;19;20007;-74
2023/10/08 07:25:15;;;;;;;8.35;5.05;;;16.70;91.90;;;;;;7383942;19;20002;-74
2023/10/08 07:27:44;;;;;;;14.88;5.50;;;16.80;92.00;;;;;;7381704;19;20006;-74
2023/10/08 07:30:13;;;;;;;11.73;5.63;;;16.90;92.10;;;;;;7403244;19;20006;-74
2023/10/08 07:32:43;;;;;;;14.05;5.63;;;16.90;92.10;;;;;;7380978;19;20006;-74
2023/10/08 07:35:24;;;;;;;13.93;5.88;;;17.00;92.10;;;;;;7380585;19;20011;-74
2023/10/08 07:37:53;;;;;;;;;;;17.00;92.10;;;;;;7381895;19;20008;-75
2023/10/08 07:40:28;;;;;;;11.52;5.35;;;17.10;92.20;;;;;;7380990;19;19903;-74
2023/10/08 07:42:57;;;;;;;10.23;5.47;;;17.10;92.10;;;;;;7383516;19;20003;-74
2023/10/08 07:45:26;;;;;;;9.25;5.55;;;17.10;92.20;;;;;;7406056;19;20007;-73
2023/10/08 07:47:55;;;;;;;12.50;5.85;;;17.20;92.40;;;;;;7380033;19;20062;-74
2023/10/08 07:50:24;;;;;;;12.68;6.03;;;17.20;92.50;;;;;;7380750;19;20034;-74
2023/10/08 07:52:55;;;;;;;13.70;5.55;;;17.30;92.60;;;;;;7380165;19;20019;-74
2023/10/08 07:55:26;;;;;;;13.98;5.85;;;17.30;92.60;;;;;;7379739;19;20003;-74
2023/10/08 07:57:55;;;;;;;12.15;5.72;;;17.40;92.60;;;;;;7380696;19;20011;-76
2023/10/08 08:00:30;;;;;;;10.25;6.07;;;17.50;92.60;;;;;;7405504;19;20079;-75
2023/10/08 08:02:59;;;;;;;10.65;6.03;;;17.60;92.60;;;;;;7377446;19;20011;-74
2023/10/08 08:05:28;;;;;;;11.80;5.22;;;17.60;92.60;;;;;;7377300;19;20011;-75
2023/10/08 08:07:59;;;;;;;10.07;5.68;;;17.70;92.70;;;;;;7379958;19;20237;-76
2023/10/08 08:10:36;;;;;;;13.68;6.38;;;17.70;92.70;;;;;;7381506;19;20006;-74
2023/10/08 08:13:07;;;;;;;16.15;7.05;;;17.80;92.70;;;;;;7381694;19;20003;-75
2023/10/08 08:15:40;;;;;;;16.65;6.38;;;17.80;92.70;;;;;;7382517;19;20070;-74
2023/10/08 08:18:18;;;;;;;14.35;6.10;;;17.90;92.70;;;;;;7400490;19;20003;-75
2023/10/08 08:20:47;;;;;;;13.23;5.80;;;18.00;92.80;;;;;;7378684;19;20006;-74
2023/10/08 08:23:16;;;;;;;13.23;5.47;;;18.00;92.90;;;;;;7379788;19;20031;-75
2023/10/08 08:26:05;;;;;;;14.05;5.53;;;18.00;93.00;;;;;;7379380;19;20021;-75
2023/10/08 08:28:34;;;;;;;11.73;4.97;;;18.00;92.90;;;;;;7381475;19;20256;-75
2023/10/08 08:31:13;;;;;;;17.17;5.13;;;18.10;93.00;;;;;;7378777;19;20066;-75
2023/10/08 08:33:56;;;;;;;18.35;5.63;;;18.20;93.30;;;;;;7381543;19;20007;-74
2023/10/08 08:36:26;;;;;;;13.95;5.90;;;18.20;92.90;;;;;;7404899;19;20029;-77
2023/10/08 08:38:55;;;;;;;14.80;6.38;;;18.30;93.00;;;;;;7383967;19;20003;-75
2023/10/08 08:41:27;;;;;;;12.13;5.90;;;18.30;93.00;;;;;;7385407;19;20006;-74
2023/10/08 08:43:59;;;;;;;15.82;5.78;;;18.40;93.10;;;;;;7386128;19;20226;-74
2023/10/08 08:46:34;;;;;;;11.07;5.47;;;18.40;93.20;;;;;;7386634;19;20002;-74
2023/10/08 08:49:07;;;;;;;12.63;5.20;;;18.50;93.20;;;;;;7385224;19;20010;-75
2023/10/08 08:51:37;;;;;;;14.63;6.07;;;18.50;93.00;;;;;;7383356;19;20050;-74
2023/10/08 08:54:09;;;;;;;16.67;6.00;;;18.60;93.10;;;;;;7404719;19;20007;-75
2023/10/08 08:56:41;;;;;;;;;;;18.60;93.10;;;;;;7385977;19;20046;-75
2023/10/08 08:59:23;;;;;;;19.48;4.95;;;18.70;93.10;;;;;;7385402;19;19915;-79
2023/10/08 09:01:57;;;;;;;17.02;4.80;;;18.70;93.10;;;;;;7387563;19;20240;-75
2023/10/08 09:04:32;;;;;;;10.77;5.10;;;18.70;93.10;;;;;;7388183;19;20011;-75
2023/10/08 09:07:08;;;;;;;11.20;4.85;;;18.80;93.30;;;;;;7388832;19;19995;-79
2023/10/08 09:09:39;;;;;;;17.40;5.43;;;18.80;93.30;;;;;;7390429;19;20014;-76
2023/10/08 09:12:21;;;;;;;11.63;5.18;;;18.90;93.20;;;;;;7416173;19;20007;-79
2023/10/08 09:15:11;;;;;;;11.95;5.75;;;18.90;93.00;;;;;;7392066;19;20063;-81
2023/10/08 09:17:46;;;;;;;10.73;5.28;;;19.00;92.90;;;;;;7386913;19;20006;-77
2023/10/08 09:20:15;;;;;;;10.40;5.43;;;19.00;92.70;;;;;;7391947;19;20009;-77
2023/10/08 09:22:44;;;;;;;13.27;5.13;;;19.00;92.50;;;;;;7386329;19;20006;-79
2023/10/08 09:25:24;;;;;;;13.70;5.65;;;19.10;92.40;;;;;;7388430;19;20007;-77
2023/10/08 09:27:58;;;;;;;11.10;5.32;;;19.10;92.30;;;;;;7390770;19;20051;-78
2023/10/08 09:30:28;;;;;;;14.45;5.78;;;19.10;92.30;;;;;;7412604;19;20055;-78
2023/10/08 09:33:01;;;;;;;12.18;5.25;;;19.20;92.40;;;;;;7388645;19;20358;-78
2023/10/08 09:35:32;;;;;;;14.00;5.75;;;19.20;92.40;;;;;;7387783;19;20062;-79
2023/10/08 09:51:06;;;;;;;11.85;5.07;;;19.40;92.30;;;;;;7385266;19;20014;-81
2023/10/08 09:56:46;;;;;;;10.20;4.70;;;19.60;92.20;;;;;;7409397;19;20038;-75
2023/10/08 09:59:18;;;;;;;11.00;5.50;;;19.60;92.10;;;;;;7379640;19;20289;-75
2023/10/08 10:01:51;;;;;;;;;;;19.60;92.10;;;;;;7384192;19;20387;-81
2023/10/08 10:04:28;;;;;;;11.63;4.60;;;19.70;92.10;;;;;;7383654;19;19918;-76
2023/10/08 10:06:58;;;;;;;13.88;4.70;;;19.70;92.00;;;;;;7380815;19;20062;-77
2023/10/08 10:09:28;;;;;;;8.10;4.30;;;19.80;91.80;;;;;;7406690;19;20066;-76
2023/10/08 10:11:57;;;;;;;13.23;5.80;;;19.80;91.70;;;;;;7381343;19;20007;-77
2023/10/08 10:14:27;;;;;;;11.82;4.80;;;19.90;91.40;;;;;;7382290;19;20050;-75
2023/10/08 10:17:25;;;;;;;13.07;4.75;;;19.90;91.30;;;;;;7380036;19;19998;-76
2023/10/08 10:19:59;;;;;;;11.35;4.82;;;20.00;91.10;;;;;;7379845;19;20021;-76
2023/10/08 10:22:32;;;;;;;8.48;4.68;;;20.00;91.00;;;;;;7378732;19;20371;-76
2023/10/08 10:25:04;;;;;;;9.07;4.80;;;20.10;91.00;;;;;;7386760;19;19999;-80
2023/10/08 10:27:34;;;;;;;;;;;20.10;90.90;;;;;;7384782;19;20078;-80
2023/10/08 10:30:08;;;;;;;12.50;4.65;;;20.20;90.80;;;;;;7410269;19;19937;-77
2023/10/08 10:32:40;;;;;;;8.98;4.75;;;20.20;90.70;;;;;;7384810;19;20002;-76
2023/10/08 10:35:11;;;;;;;11.20;4.13;;;20.20;90.60;;;;;;7381567;19;20007;-76
2023/10/08 10:37:43;;;;;;;;;;;20.30;90.60;;;;;;7382859;19;20087;-75
2023/10/08 10:40:13;;;;;;;12.82;5.10;;;20.30;90.50;;;;;;7380489;19;20233;-75
2023/10/08 10:42:47;;;;;;;10.68;4.80;;;20.40;90.30;;;;;;7381286;19;20397;-74
2023/10/08 10:45:35;;;;;;;10.05;5.22;;;20.30;90.20;;;;;;7406371;19;20022;-76
2023/10/08 10:48:21;;;;;;;10.77;4.50;;;20.40;90.20;;;;;;7380647;19;20007;-75
2023/10/08 10:51:07;;;;;;;14.15;7.63;;;20.40;90.10;;;;;;7380846;19;20010;-73
2023/10/08 10:53:44;;;;;;;15.63;5.22;;;20.50;89.90;;;;;;7380126;19;20074;-75
2023/10/08 10:56:18;;;;;;;14.02;5.40;;;20.50;89.60;;;;;;7381147;19;20002;-74
2023/10/08 10:58:48;;;;;;;11.20;4.82;;;20.60;89.00;;;;;;7377319;19;20007;-74
2023/10/08 11:01:24;;;;;;;15.80;4.97;;;20.60;88.40;;;;;;7379185;19;20517;-75
2023/10/08 11:03:53;;;;;;;16.48;4.95;;;20.60;87.80;;;;;;7381497;19;20011;-73
2023/10/08 11:06:25;;;;;;;17.23;4.68;;;20.60;87.00;;;;;;7403979;19;20087;-73
2023/10/08 11:08:56;;;;;;;10.98;4.00;;;20.70;87.00;;;;;;7378611;19;20239;-73
2023/10/08 11:11:30;;;;;;;12.32;4.25;;;20.70;86.30;;;;;;7378245;19;20244;-74
2023/10/08 11:14:00;;;;;;;11.38;4.60;;;20.80;86.20;;;;;;7378197;19;20013;-74
2023/10/08 11:16:31;;;;;;;8.27;4.13;;;20.80;86.10;;;;;;7379580;19;20007;-75
2023/10/08 11:19:06;;;;;;;8.35;4.00;;;20.80;86.10;;;;;;7379061;19;20007;-74
2023/10/08 11:21:51;;;;;;;7.47;4.00;;;20.90;85.50;;;;;;7382715;19;20006;-78
2023/10/08 11:24:33;;;;;;;12.52;4.93;;;21.00;85.20;;;;;;7415015;19;20019;-80
2023/10/08 11:36:48;;;;;;;16.05;4.93;;;21.20;85.00;;;;;;7408681;19;20358;-81
2023/10/08 11:42:51;;;;;;;15.45;5.13;;;21.30;84.40;;;;;;7285495;19;2004320;-83
2023/10/08 11:45:24;;;;;;;9.55;4.38;;;21.40;84.20;;;;;;7405013;19;20013;-79
2023/10/08 11:48:03;;;;;;;10.60;4.20;;;21.50;84.40;;;;;;7378538;19;20002;-76
2023/10/08 11:50:35;;;;;;;12.27;4.38;;;21.50;84.30;;;;;;7377925;19;20011;-76
2023/10/08 11:53:11;;;;;;;15.25;4.78;;;21.60;84.10;;;;;;7377068;19;20031;-78
2023/10/08 11:55:42;;;;;;;12.02;4.50;;;21.60;83.50;;;;;;7380265;19;20015;-78
2023/10/08 11:58:17;;;;;;;12.52;4.82;;;21.70;83.40;;;;;;7381142;19;20043;-78
2023/10/08 12:00:52;;;;;;;10.63;4.60;;;21.80;83.30;;;;;;7381896;19;20521;-79
2023/10/08 12:03:25;;;;;;;12.60;4.72;;;21.80;82.60;;;;;;7402504;19;20014;-77
2023/10/08 12:05:59;;;;;;;9.82;4.60;;;21.90;82.50;;;;;;7379017;19;20009;-79
2023/10/08 12:08:39;;;;;;;12.02;4.50;;;22.00;82.20;;;;;;7385345;19;20007;-81
2023/10/08 12:11:11;;;;;;;8.25;4.10;;;22.10;81.70;;;;;;7386550;19;20014;-76
2023/10/08 12:13:44;;;;;;;8.82;4.53;;;22.10;81.50;;;;;;7387531;19;20030;-76
2023/10/08 12:16:18;;;;;;;8.80;4.95;;;22.20;81.40;;;;;;7389047;19;20030;-75
2023/10/08 12:18:48;;;;;;;14.73;4.70;;;22.20;81.20;;;;;;7393065;19;20006;-77
2023/10/08 12:21:18;;;;;;;11.90;4.47;;;22.30;81.90;;;;;;7408966;19;20071;-78
2023/10/08 12:23:54;;;;;;;16.02;4.40;;;22.30;81.00;;;;;;7387167;19;20007;-76
2023/10/08 12:26:23;;;;;;;11.25;4.38;;;22.40;81.20;;;;;;7388203;19;20358;-75
2023/10/08 12:28:55;;;;;;;12.43;3.63;;;22.40;80.60;;;;;;7386648;19;20011;-77
2023/10/08 12:31:24;;;;;;;12.65;4.95;;;22.50;80.30;;;;;;7389974;19;20006;-77
2023/10/08 12:34:00;;;;;;;10.00;5.03;;;22.60;80.20;;;;;;7389398;19;20006;-75
2023/10/08 12:36:32;;;;;;;11.18;4.63;;;22.60;79.90;;;;;;7412547;19;20007;-77
2023/10/08 12:39:10;;;;;;;15.32;4.47;;;22.70;77.90;;;;;;7385897;19;20005;-77
2023/10/08 12:41:39;;;;;;;14.48;4.65;;;22.80;77.10;;;;;;7386208;19;20002;-77
2023/10/08 12:44:09;;;;;;;11.55;3.83;;;22.90;77.30;;;;;;7390082;19;20279;-77
2023/10/08 12:46:38;;;;;;;11.50;3.75;;;23.00;76.40;;;;;;7387079;19;20010;-77
2023/10/08 12:49:07;;;;;;;9.45;4.03;;;23.10;76.90;;;;;;7387623;19;20005;-77
2023/10/08 12:51:41;;;;;;;5.53;3.30;;;23.20;77.20;;;;;;7388600;19;20010;-76
2023/10/08 12:54:21;;;;;;;18.15;3.80;;;23.20;76.40;;;;;;7405763;19;20003;-76
2023/10/08 12:56:54;;;;;;;10.88;4.07;;;23.30;75.70;;;;;;7385072;19;20031;-78
2023/10/08 12:59:23;;;;;;;8.73;3.22;;;23.40;76.40;;;;;;7387207;19;20010;-76
2023/10/08 13:01:54;;;;;;;21.25;3.17;;;23.50;75.60;;;;;;7387613;19;20030;-77
2023/10/08 13:04:26;;;;;;;7.63;3.45;;;23.60;74.30;;;;;;7387820;19;20003;-74
2023/10/08 13:06:56;;;;;;;8.98;4.40;;;23.70;74.20;;;;;;7385060;19;20006;-76
2023/10/08 13:09:30;;;;;;;9.05;4.40;;;23.70;75.00;;;;;;7409547;19;20011;-76
2023/10/08 13:12:00;;;;;;;18.70;4.13;;;23.80;75.60;;;;;;7390174;19;20059;-76
2023/10/08 13:14:29;;;;;;;11.10;3.97;;;23.90;76.40;;;;;;7389991;19;20006;-77
2023/10/08 13:16:58;;;;;;;15.35;4.18;;;23.90;75.60;;;;;;7392017;19;20066;-76
2023/10/08 13:19:27;;;;;;;11.63;4.00;;;24.00;75.50;;;;;;7389212;19;20017;-75
2023/10/08 13:21:55;;;;;;;13.30;4.18;;;24.00;75.20;;;;;;7389835;19;20238;-75
2023/10/08 13:24:27;;;;;;;10.43;3.90;;;24.10;74.70;;;;;;7408290;19;20006;-74
2023/10/08 13:26:59;;;;;;;17.40;4.30;;;24.20;74.90;;;;;;7384713;19;20003;-74
2023/10/08 13:29:32;;;;;;;7.43;3.75;;;24.20;74.20;;;;;;7385775;19;20278;-74
2023/10/08 13:32:01;;;;;;;9.80;4.25;;;24.30;74.00;;;;;;7383964;19;20026;-76
2023/10/08 13:34:31;;;;;;;13.60;4.15;;;24.30;73.50;;;;;;7387165;19;20401;-76
2023/10/08 13:37:00;;;;;;;9.20;4.05;;;24.40;73.50;;;;;;7385420;19;20378;-77
2023/10/08 13:39:28;;;;;;;15.63;4.05;;;24.50;73.40;;;;;;7408516;19;20011;-77
2023/10/08 13:42:01;;;;;;;14.82;3.83;;;24.50;73.40;;;;;;7388716;19;20382;-73
2023/10/08 13:44:31;;;;;;;8.23;4.35;;;24.60;73.50;;;;;;7384460;19;20018;-75
2023/10/08 13:47:05;;;;;;;18.20;4.47;;;24.60;73.20;;;;;;7386982;19;20006;-77
2023/10/08 13:49:36;;;;;;;11.90;3.75;;;24.70;72.70;;;;;;7395424;19;20010;-78
2023/10/08 13:52:07;;;;;;;14.30;5.00;;;24.70;72.50;;;;;;7389784;19;20038;-77
2023/10/08 13:54:41;;;;;;;15.75;3.45;;;24.80;72.50;;;;;;7392657;19;20017;-75
2023/10/08 13:57:14;;;;;;;8.43;3.55;;;24.80;71.70;;;;;;7407625;19;20063;-78
2023/10/08 13:59:43;;;;;;;15.27;3.33;;;24.90;71.30;;;;;;7384612;19;20007;-76
2023/10/08 14:02:19;;;;;;;14.70;3.47;;;24.90;70.80;;;;;;7383808;19;20386;-75